sensor_id;sensor_type;location;lat;lon;timestamp;P1;durP1;ratioP1;P2;durP2;ratioP2
33954;SDS011;20233;50.804;7.126;2024-03-08T00:00:10;26.10;;;18.58;;
33954;SDS011;20233;50.804;7.126;2024-03-08T00:02:39;27.17;;;17.00;;
33954;SDS011;20233;50.804;7.126;2024-03-08T00:05:05;25.90;;;17.52;;
33954;SDS011;20233;50.804;7.126;2024-03-08T00:07:32;26.00;;;17.33;;
33954;SDS011;20233;50.804;7.126;2024-03-08T00:09:58;24.45;;;17.25;;
33954;SDS011;20233;50.804;7.126;2024-03-08T00:12:23;27.98;;;17.67;;
33954;SDS011;20233;50.804;7.126;2024-03-08T00:14:51;23.65;;;16.65;;
33954;SDS011;20233;50.804;7.126;2024-03-08T00:17:16;28.42;;;18.30;;
33954;SDS011;20233;50.804;7.126;2024-03-08T00:19:42;29.65;;;17.75;;
33954;SDS011;20233;50.804;7.126;2024-03-08T00:22:08;26.15;;;16.05;;
33954;SDS011;20233;50.804;7.126;2024-03-08T00:24:34;26.73;;;16.60;;
33954;SDS011;20233;50.804;7.126;2024-03-08T00:27:00;27.15;;;17.65;;
33954;SDS011;20233;50.804;7.126;2024-03-08T00:29:27;23.45;;;15.85;;
33954;SDS011;20233;50.804;7.126;2024-03-08T00:31:52;25.60;;;16.60;;
33954;SDS011;20233;50.804;7.126;2024-03-08T00:34:18;25.67;;;16.63;;
33954;SDS011;20233;50.804;7.126;2024-03-08T00:36:43;28.92;;;16.98;;
33954;SDS011;20233;50.804;7.126;2024-03-08T00:39:09;26.33;;;16.63;;
33954;SDS011;20233;50.804;7.126;2024-03-08T00:41:34;27.13;;;18.10;;
33954;SDS011;20233;50.804;7.126;2024-03-08T00:44:00;26.50;;;17.73;;
33954;SDS011;20233;50.804;7.126;2024-03-08T00:46:25;27.05;;;17.92;;
33954;SDS011;20233;50.804;7.126;2024-03-08T00:48:52;29.60;;;18.55;;
33954;SDS011;20233;50.804;7.126;2024-03-08T00:51:18;26.83;;;17.42;;
33954;SDS011;20233;50.804;7.126;2024-03-08T00:53:43;28.15;;;16.58;;
33954;SDS011;20233;50.804;7.126;2024-03-08T00:56:09;29.35;;;19.10;;
33954;SDS011;20233;50.804;7.126;2024-03-08T00:58:37;27.20;;;17.55;;
33954;SDS011;20233;50.804;7.126;2024-03-08T01:01:03;27.75;;;17.33;;
33954;SDS011;20233;50.804;7.126;2024-03-08T01:03:29;28.42;;;17.42;;
33954;SDS011;20233;50.804;7.126;2024-03-08T01:05:59;26.73;;;18.60;;
33954;SDS011;20233;50.804;7.126;2024-03-08T01:08:26;29.42;;;17.92;;
33954;SDS011;20233;50.804;7.126;2024-03-08T01:10:52;29.35;;;19.00;;
33954;SDS011;20233;50.804;7.126;2024-03-08T01:13:18;27.80;;;17.33;;
33954;SDS011;20233;50.804;7.126;2024-03-08T01:15:44;28.67;;;17.17;;
33954;SDS011;20233;50.804;7.126;2024-03-08T01:18:10;27.20;;;17.60;;
33954;SDS011;20233;50.804;7.126;2024-03-08T01:20:35;30.15;;;17.48;;
33954;SDS011;20233;50.804;7.126;2024-03-08T01:23:01;26.20;;;17.80;;
33954;SDS011;20233;50.804;7.126;2024-03-08T01:25:26;28.67;;;18.25;;
33954;SDS011;20233;50.804;7.126;2024-03-08T01:27:52;28.60;;;17.63;;
33954;SDS011;20233;50.804;7.126;2024-03-08T01:30:18;28.02;;;17.05;;
33954;SDS011;20233;50.804;7.126;2024-03-08T01:32:44;28.65;;;16.95;;
33954;SDS011;20233;50.804;7.126;2024-03-08T01:35:10;27.90;;;18.65;;
33954;SDS011;20233;50.804;7.126;2024-03-08T01:37:36;29.73;;;18.48;;
33954;SDS011;20233;50.804;7.126;2024-03-08T01:40:02;30.33;;;18.95;;
33954;SDS011;20233;50.804;7.126;2024-03-08T01:42:28;30.70;;;18.50;;
33954;SDS011;20233;50.804;7.126;2024-03-08T01:44:54;30.63;;;17.67;;
33954;SDS011;20233;50.804;7.126;2024-03-08T01:47:20;29.73;;;17.50;;
33954;SDS011;20233;50.804;7.126;2024-03-08T01:49:48;30.42;;;18.15;;
33954;SDS011;20233;50.804;7.126;2024-03-08T01:52:15;31.35;;;18.55;;
33954;SDS011;20233;50.804;7.126;2024-03-08T01:54:41;31.13;;;18.75;;
33954;SDS011;20233;50.804;7.126;2024-03-08T01:57:07;32.40;;;18.35;;
33954;SDS011;20233;50.804;7.126;2024-03-08T01:59:32;29.55;;;17.85;;
33954;SDS011;20233;50.804;7.126;2024-03-08T02:02:00;29.15;;;18.63;;
33954;SDS011;20233;50.804;7.126;2024-03-08T02:04:28;29.33;;;17.50;;
33954;SDS011;20233;50.804;7.126;2024-03-08T02:06:55;27.58;;;17.52;;
33954;SDS011;20233;50.804;7.126;2024-03-08T02:09:23;28.77;;;18.13;;
33954;SDS011;20233;50.804;7.126;2024-03-08T02:11:49;31.50;;;18.05;;
33954;SDS011;20233;50.804;7.126;2024-03-08T02:14:16;31.27;;;17.95;;
33954;SDS011;20233;50.804;7.126;2024-03-08T02:16:43;30.58;;;18.23;;
33954;SDS011;20233;50.804;7.126;2024-03-08T02:19:09;30.45;;;19.42;;
33954;SDS011;20233;50.804;7.126;2024-03-08T02:21:35;30.00;;;19.13;;
33954;SDS011;20233;50.804;7.126;2024-03-08T02:24:01;30.13;;;17.90;;
33954;SDS011;20233;50.804;7.126;2024-03-08T02:26:26;31.25;;;18.50;;
33954;SDS011;20233;50.804;7.126;2024-03-08T02:28:53;29.33;;;19.55;;
33954;SDS011;20233;50.804;7.126;2024-03-08T02:31:19;29.20;;;18.33;;
33954;SDS011;20233;50.804;7.126;2024-03-08T02:33:45;32.47;;;17.83;;
33954;SDS011;20233;50.804;7.126;2024-03-08T02:36:12;33.67;;;19.33;;
33954;SDS011;20233;50.804;7.126;2024-03-08T02:38:38;30.27;;;19.88;;
33954;SDS011;20233;50.804;7.126;2024-03-08T02:41:05;29.80;;;18.92;;
33954;SDS011;20233;50.804;7.126;2024-03-08T02:43:31;30.90;;;18.40;;
33954;SDS011;20233;50.804;7.126;2024-03-08T02:45:57;33.28;;;19.25;;
33954;SDS011;20233;50.804;7.126;2024-03-08T02:48:22;31.27;;;19.00;;
33954;SDS011;20233;50.804;7.126;2024-03-08T02:50:48;36.55;;;19.67;;
33954;SDS011;20233;50.804;7.126;2024-03-08T02:53:15;34.22;;;19.88;;
33954;SDS011;20233;50.804;7.126;2024-03-08T02:55:41;29.38;;;17.70;;
33954;SDS011;20233;50.804;7.126;2024-03-08T02:58:07;29.73;;;18.30;;
33954;SDS011;20233;50.804;7.126;2024-03-08T03:00:37;30.38;;;18.73;;
33954;SDS011;20233;50.804;7.126;2024-03-08T03:03:03;32.00;;;17.95;;
33954;SDS011;20233;50.804;7.126;2024-03-08T03:05:29;36.67;;;19.65;;
33954;SDS011;20233;50.804;7.126;2024-03-08T03:07:55;32.83;;;19.65;;
33954;SDS011;20233;50.804;7.126;2024-03-08T03:10:21;29.77;;;18.17;;
33954;SDS011;20233;50.804;7.126;2024-03-08T03:12:47;33.97;;;19.20;;
33954;SDS011;20233;50.804;7.126;2024-03-08T03:15:16;33.28;;;19.15;;
33954;SDS011;20233;50.804;7.126;2024-03-08T03:17:49;33.40;;;19.48;;
33954;SDS011;20233;50.804;7.126;2024-03-08T03:20:18;34.30;;;19.42;;
33954;SDS011;20233;50.804;7.126;2024-03-08T03:22:51;32.40;;;19.25;;
33954;SDS011;20233;50.804;7.126;2024-03-08T03:25:17;34.17;;;19.05;;
33954;SDS011;20233;50.804;7.126;2024-03-08T03:27:53;35.28;;;19.90;;
33954;SDS011;20233;50.804;7.126;2024-03-08T03:30:25;33.08;;;18.88;;
33954;SDS011;20233;50.804;7.126;2024-03-08T03:32:58;33.80;;;19.30;;
33954;SDS011;20233;50.804;7.126;2024-03-08T03:35:25;36.20;;;19.30;;
33954;SDS011;20233;50.804;7.126;2024-03-08T03:37:53;27.52;;;18.67;;
33954;SDS011;20233;50.804;7.126;2024-03-08T03:40:32;33.60;;;19.17;;
33954;SDS011;20233;50.804;7.126;2024-03-08T03:43:04;30.58;;;19.42;;
33954;SDS011;20233;50.804;7.126;2024-03-08T03:45:30;34.45;;;20.52;;
33954;SDS011;20233;50.804;7.126;2024-03-08T03:47:59;34.25;;;20.08;;
33954;SDS011;20233;50.804;7.126;2024-03-08T03:50:28;32.08;;;18.40;;
33954;SDS011;20233;50.804;7.126;2024-03-08T03:52:54;34.83;;;20.15;;
33954;SDS011;20233;50.804;7.126;2024-03-08T03:55:19;34.60;;;19.42;;
33954;SDS011;20233;50.804;7.126;2024-03-08T03:57:46;30.88;;;19.48;;
33954;SDS011;20233;50.804;7.126;2024-03-08T04:00:12;32.03;;;18.80;;
33954;SDS011;20233;50.804;7.126;2024-03-08T04:02:38;32.95;;;18.20;;
33954;SDS011;20233;50.804;7.126;2024-03-08T04:05:05;32.65;;;18.90;;
33954;SDS011;20233;50.804;7.126;2024-03-08T04:07:32;31.83;;;18.75;;
33954;SDS011;20233;50.804;7.126;2024-03-08T04:09:58;33.22;;;19.20;;
33954;SDS011;20233;50.804;7.126;2024-03-08T04:12:23;34.33;;;18.60;;
33954;SDS011;20233;50.804;7.126;2024-03-08T04:14:49;34.03;;;19.15;;
33954;SDS011;20233;50.804;7.126;2024-03-08T04:17:14;33.63;;;19.00;;
33954;SDS011;20233;50.804;7.126;2024-03-08T04:19:40;36.80;;;20.38;;
33954;SDS011;20233;50.804;7.126;2024-03-08T04:22:06;35.88;;;20.27;;
33954;SDS011;20233;50.804;7.126;2024-03-08T04:24:32;37.25;;;20.23;;
33954;SDS011;20233;50.804;7.126;2024-03-08T04:26:58;35.00;;;19.27;;
33954;SDS011;20233;50.804;7.126;2024-03-08T04:29:24;38.92;;;20.58;;
33954;SDS011;20233;50.804;7.126;2024-03-08T04:31:50;36.55;;;19.50;;
33954;SDS011;20233;50.804;7.126;2024-03-08T04:34:19;37.10;;;20.50;;
33954;SDS011;20233;50.804;7.126;2024-03-08T04:36:45;37.17;;;20.02;;
33954;SDS011;20233;50.804;7.126;2024-03-08T04:39:11;35.50;;;20.17;;
33954;SDS011;20233;50.804;7.126;2024-03-08T04:41:38;34.13;;;19.65;;
33954;SDS011;20233;50.804;7.126;2024-03-08T04:44:04;33.95;;;19.23;;
33954;SDS011;20233;50.804;7.126;2024-03-08T04:46:29;34.28;;;18.92;;
33954;SDS011;20233;50.804;7.126;2024-03-08T04:48:55;34.55;;;19.75;;
33954;SDS011;20233;50.804;7.126;2024-03-08T04:51:21;36.78;;;19.63;;
33954;SDS011;20233;50.804;7.126;2024-03-08T04:53:48;35.55;;;19.17;;
33954;SDS011;20233;50.804;7.126;2024-03-08T04:56:14;35.78;;;20.73;;
33954;SDS011;20233;50.804;7.126;2024-03-08T04:58:41;36.60;;;19.92;;
33954;SDS011;20233;50.804;7.126;2024-03-08T05:01:07;32.80;;;18.88;;
33954;SDS011;20233;50.804;7.126;2024-03-08T05:03:35;34.53;;;19.65;;
33954;SDS011;20233;50.804;7.126;2024-03-08T05:06:01;37.28;;;20.70;;
33954;SDS011;20233;50.804;7.126;2024-03-08T05:08:27;33.90;;;19.42;;
33954;SDS011;20233;50.804;7.126;2024-03-08T05:10:53;35.45;;;19.08;;
33954;SDS011;20233;50.804;7.126;2024-03-08T05:13:19;34.58;;;20.90;;
33954;SDS011;20233;50.804;7.126;2024-03-08T05:15:47;36.40;;;20.83;;
33954;SDS011;20233;50.804;7.126;2024-03-08T05:18:14;35.20;;;19.30;;
33954;SDS011;20233;50.804;7.126;2024-03-08T05:20:40;34.38;;;19.38;;
33954;SDS011;20233;50.804;7.126;2024-03-08T05:23:06;35.13;;;20.30;;
33954;SDS011;20233;50.804;7.126;2024-03-08T05:25:33;40.15;;;21.27;;
33954;SDS011;20233;50.804;7.126;2024-03-08T05:27:59;39.05;;;22.77;;
33954;SDS011;20233;50.804;7.126;2024-03-08T05:30:24;34.30;;;19.58;;
33954;SDS011;20233;50.804;7.126;2024-03-08T05:32:50;36.47;;;20.92;;
33954;SDS011;20233;50.804;7.126;2024-03-08T05:35:16;35.17;;;20.05;;
33954;SDS011;20233;50.804;7.126;2024-03-08T05:37:42;36.92;;;20.70;;
33954;SDS011;20233;50.804;7.126;2024-03-08T05:40:08;37.13;;;20.50;;
33954;SDS011;20233;50.804;7.126;2024-03-08T05:42:37;39.20;;;21.00;;
33954;SDS011;20233;50.804;7.126;2024-03-08T05:45:03;42.45;;;19.90;;
33954;SDS011;20233;50.804;7.126;2024-03-08T05:47:31;34.80;;;20.08;;
33954;SDS011;20233;50.804;7.126;2024-03-08T05:49:57;38.90;;;21.08;;
33954;SDS011;20233;50.804;7.126;2024-03-08T05:52:24;36.00;;;19.95;;
33954;SDS011;20233;50.804;7.126;2024-03-08T05:54:51;33.50;;;19.45;;
33954;SDS011;20233;50.804;7.126;2024-03-08T05:57:16;36.22;;;20.45;;
33954;SDS011;20233;50.804;7.126;2024-03-08T05:59:42;37.33;;;20.85;;
33954;SDS011;20233;50.804;7.126;2024-03-08T06:02:07;35.58;;;19.95;;
33954;SDS011;20233;50.804;7.126;2024-03-08T06:04:33;37.97;;;20.27;;
33954;SDS011;20233;50.804;7.126;2024-03-08T06:06:59;37.08;;;20.77;;
33954;SDS011;20233;50.804;7.126;2024-03-08T06:09:24;41.55;;;22.40;;
33954;SDS011;20233;50.804;7.126;2024-03-08T06:11:51;37.40;;;20.73;;
33954;SDS011;20233;50.804;7.126;2024-03-08T06:14:17;39.17;;;21.08;;
33954;SDS011;20233;50.804;7.126;2024-03-08T06:16:44;38.28;;;21.67;;
33954;SDS011;20233;50.804;7.126;2024-03-08T06:21:40;39.17;;;19.75;;
33954;SDS011;20233;50.804;7.126;2024-03-08T06:24:06;38.38;;;20.13;;
33954;SDS011;20233;50.804;7.126;2024-03-08T06:26:32;38.55;;;21.67;;
33954;SDS011;20233;50.804;7.126;2024-03-08T06:28:59;37.42;;;21.85;;
33954;SDS011;20233;50.804;7.126;2024-03-08T06:31:25;39.88;;;20.95;;
33954;SDS011;20233;50.804;7.126;2024-03-08T06:33:51;38.20;;;21.35;;
33954;SDS011;20233;50.804;7.126;2024-03-08T06:36:19;41.92;;;22.05;;
33954;SDS011;20233;50.804;7.126;2024-03-08T06:38:46;40.25;;;22.08;;
33954;SDS011;20233;50.804;7.126;2024-03-08T06:41:15;40.95;;;21.65;;
33954;SDS011;20233;50.804;7.126;2024-03-08T06:43:42;40.58;;;20.90;;
33954;SDS011;20233;50.804;7.126;2024-03-08T06:46:11;39.72;;;21.25;;
33954;SDS011;20233;50.804;7.126;2024-03-08T06:48:39;43.65;;;22.45;;
33954;SDS011;20233;50.804;7.126;2024-03-08T06:51:05;39.85;;;21.23;;
33954;SDS011;20233;50.804;7.126;2024-03-08T06:53:31;45.55;;;23.63;;
33954;SDS011;20233;50.804;7.126;2024-03-08T06:55:56;39.45;;;21.65;;
33954;SDS011;20233;50.804;7.126;2024-03-08T06:58:26;42.80;;;23.05;;
33954;SDS011;20233;50.804;7.126;2024-03-08T07:00:52;41.97;;;22.23;;
33954;SDS011;20233;50.804;7.126;2024-03-08T07:03:18;36.75;;;21.25;;
33954;SDS011;20233;50.804;7.126;2024-03-08T07:05:44;39.85;;;21.27;;
33954;SDS011;20233;50.804;7.126;2024-03-08T07:08:09;40.47;;;22.75;;
33954;SDS011;20233;50.804;7.126;2024-03-08T07:10:37;42.42;;;23.65;;
33954;SDS011;20233;50.804;7.126;2024-03-08T07:13:06;40.88;;;21.08;;
33954;SDS011;20233;50.804;7.126;2024-03-08T07:15:32;37.92;;;20.88;;
33954;SDS011;20233;50.804;7.126;2024-03-08T07:17:58;38.30;;;21.55;;
33954;SDS011;20233;50.804;7.126;2024-03-08T07:20:24;39.25;;;22.88;;
33954;SDS011;20233;50.804;7.126;2024-03-08T07:22:50;37.33;;;20.42;;
33954;SDS011;20233;50.804;7.126;2024-03-08T07:25:16;37.92;;;21.52;;
33954;SDS011;20233;50.804;7.126;2024-03-08T07:27:52;38.35;;;20.50;;
33954;SDS011;20233;50.804;7.126;2024-03-08T07:30:19;37.67;;;21.83;;
33954;SDS011;20233;50.804;7.126;2024-03-08T07:33:05;38.10;;;19.65;;
33954;SDS011;20233;50.804;7.126;2024-03-08T07:35:32;42.45;;;20.27;;
33954;SDS011;20233;50.804;7.126;2024-03-08T07:37:58;41.00;;;20.95;;
33954;SDS011;20233;50.804;7.126;2024-03-08T07:40:25;41.80;;;21.92;;
33954;SDS011;20233;50.804;7.126;2024-03-08T07:42:51;36.00;;;21.15;;
33954;SDS011;20233;50.804;7.126;2024-03-08T07:45:17;42.05;;;21.08;;
33954;SDS011;20233;50.804;7.126;2024-03-08T07:47:43;38.78;;;20.90;;
33954;SDS011;20233;50.804;7.126;2024-03-08T07:50:09;38.08;;;20.75;;
33954;SDS011;20233;50.804;7.126;2024-03-08T07:52:35;36.28;;;21.23;;
33954;SDS011;20233;50.804;7.126;2024-03-08T07:55:03;35.92;;;20.48;;
33954;SDS011;20233;50.804;7.126;2024-03-08T07:57:30;38.55;;;21.08;;
33954;SDS011;20233;50.804;7.126;2024-03-08T07:59:56;37.95;;;21.67;;
33954;SDS011;20233;50.804;7.126;2024-03-08T08:02:23;37.42;;;20.35;;
33954;SDS011;20233;50.804;7.126;2024-03-08T08:04:48;38.30;;;21.10;;
33954;SDS011;20233;50.804;7.126;2024-03-08T08:07:14;35.13;;;18.70;;
33954;SDS011;20233;50.804;7.126;2024-03-08T08:09:40;39.42;;;21.05;;
33954;SDS011;20233;50.804;7.126;2024-03-08T08:12:07;38.67;;;20.73;;
33954;SDS011;20233;50.804;7.126;2024-03-08T08:14:37;39.70;;;20.92;;
33954;SDS011;20233;50.804;7.126;2024-03-08T08:17:04;39.00;;;20.30;;
33954;SDS011;20233;50.804;7.126;2024-03-08T08:19:30;37.10;;;19.45;;
33954;SDS011;20233;50.804;7.126;2024-03-08T08:21:57;36.85;;;20.15;;
33954;SDS011;20233;50.804;7.126;2024-03-08T08:24:23;33.70;;;20.77;;
33954;SDS011;20233;50.804;7.126;2024-03-08T08:26:48;36.55;;;19.08;;
33954;SDS011;20233;50.804;7.126;2024-03-08T08:29:14;33.92;;;18.77;;
33954;SDS011;20233;50.804;7.126;2024-03-08T08:31:39;31.83;;;18.35;;
33954;SDS011;20233;50.804;7.126;2024-03-08T08:34:05;36.75;;;19.70;;
33954;SDS011;20233;50.804;7.126;2024-03-08T08:36:31;31.38;;;18.50;;
33954;SDS011;20233;50.804;7.126;2024-03-08T08:38:57;34.45;;;19.42;;
33954;SDS011;20233;50.804;7.126;2024-03-08T08:41:24;33.03;;;19.15;;
33954;SDS011;20233;50.804;7.126;2024-03-08T08:43:50;34.92;;;18.15;;
33954;SDS011;20233;50.804;7.126;2024-03-08T08:46:19;31.55;;;17.65;;
33954;SDS011;20233;50.804;7.126;2024-03-08T08:48:44;30.10;;;17.95;;
33954;SDS011;20233;50.804;7.126;2024-03-08T08:51:11;37.47;;;19.10;;
33954;SDS011;20233;50.804;7.126;2024-03-08T08:53:40;35.13;;;19.85;;
33954;SDS011;20233;50.804;7.126;2024-03-08T08:56:07;29.53;;;19.20;;
33954;SDS011;20233;50.804;7.126;2024-03-08T08:58:38;31.10;;;17.17;;
33954;SDS011;20233;50.804;7.126;2024-03-08T09:01:05;31.83;;;18.75;;
33954;SDS011;20233;50.804;7.126;2024-03-08T09:03:32;31.77;;;17.73;;
33954;SDS011;20233;50.804;7.126;2024-03-08T09:05:59;29.33;;;17.88;;
33954;SDS011;20233;50.804;7.126;2024-03-08T09:08:25;29.40;;;17.45;;
33954;SDS011;20233;50.804;7.126;2024-03-08T09:10:51;27.40;;;17.08;;
33954;SDS011;20233;50.804;7.126;2024-03-08T09:13:16;29.98;;;16.58;;
33954;SDS011;20233;50.804;7.126;2024-03-08T09:15:43;31.25;;;17.55;;
33954;SDS011;20233;50.804;7.126;2024-03-08T09:18:09;29.73;;;15.85;;
33954;SDS011;20233;50.804;7.126;2024-03-08T09:20:35;27.35;;;16.98;;
33954;SDS011;20233;50.804;7.126;2024-03-08T09:23:01;30.40;;;15.35;;
33954;SDS011;20233;50.804;7.126;2024-03-08T09:25:28;27.77;;;15.73;;
33954;SDS011;20233;50.804;7.126;2024-03-08T09:27:54;25.95;;;14.95;;
33954;SDS011;20233;50.804;7.126;2024-03-08T09:30:20;22.33;;;12.75;;
33954;SDS011;20233;50.804;7.126;2024-03-08T09:32:46;27.17;;;13.98;;
33954;SDS011;20233;50.804;7.126;2024-03-08T09:35:17;23.70;;;12.68;;
33954;SDS011;20233;50.804;7.126;2024-03-08T09:37:44;21.95;;;13.80;;
33954;SDS011;20233;50.804;7.126;2024-03-08T09:40:12;22.70;;;13.35;;
33954;SDS011;20233;50.804;7.126;2024-03-08T09:42:40;26.17;;;13.10;;
33954;SDS011;20233;50.804;7.126;2024-03-08T09:45:10;18.25;;;11.38;;
33954;SDS011;20233;50.804;7.126;2024-03-08T09:47:40;17.85;;;10.23;;
33954;SDS011;20233;50.804;7.126;2024-03-08T09:50:07;20.37;;;12.00;;
33954;SDS011;20233;50.804;7.126;2024-03-08T09:52:37;20.63;;;11.93;;
33954;SDS011;20233;50.804;7.126;2024-03-08T09:55:04;20.42;;;11.75;;
33954;SDS011;20233;50.804;7.126;2024-03-08T09:57:36;21.88;;;11.40;;
33954;SDS011;20233;50.804;7.126;2024-03-08T10:00:02;18.52;;;11.70;;
33954;SDS011;20233;50.804;7.126;2024-03-08T10:02:48;17.83;;;10.85;;
33954;SDS011;20233;50.804;7.126;2024-03-08T10:05:17;18.33;;;10.93;;
33954;SDS011;20233;50.804;7.126;2024-03-08T10:07:43;17.45;;;12.02;;
33954;SDS011;20233;50.804;7.126;2024-03-08T10:10:09;19.88;;;10.32;;
33954;SDS011;20233;50.804;7.126;2024-03-08T10:12:37;20.38;;;11.25;;
33954;SDS011;20233;50.804;7.126;2024-03-08T10:15:05;19.60;;;10.88;;
33954;SDS011;20233;50.804;7.126;2024-03-08T10:17:36;22.27;;;11.65;;
33954;SDS011;20233;50.804;7.126;2024-03-08T10:20:02;17.63;;;10.77;;
33954;SDS011;20233;50.804;7.126;2024-03-08T10:22:29;17.15;;;10.68;;
33954;SDS011;20233;50.804;7.126;2024-03-08T10:24:56;14.77;;;10.00;;
33954;SDS011;20233;50.804;7.126;2024-03-08T10:27:22;15.60;;;9.95;;
33954;SDS011;20233;50.804;7.126;2024-03-08T10:29:48;17.33;;;9.95;;
33954;SDS011;20233;50.804;7.126;2024-03-08T10:32:15;15.48;;;9.88;;
33954;SDS011;20233;50.804;7.126;2024-03-08T10:34:41;17.65;;;9.88;;
33954;SDS011;20233;50.804;7.126;2024-03-08T10:37:07;16.33;;;9.90;;
33954;SDS011;20233;50.804;7.126;2024-03-08T10:39:37;14.75;;;10.10;;
33954;SDS011;20233;50.804;7.126;2024-03-08T10:42:08;15.93;;;9.23;;
33954;SDS011;20233;50.804;7.126;2024-03-08T10:44:42;17.13;;;9.95;;
33954;SDS011;20233;50.804;7.126;2024-03-08T10:47:23;16.13;;;9.88;;
33954;SDS011;20233;50.804;7.126;2024-03-08T10:49:57;17.25;;;10.43;;
33954;SDS011;20233;50.804;7.126;2024-03-08T10:52:45;15.68;;;9.68;;
33954;SDS011;20233;50.804;7.126;2024-03-08T10:55:17;15.45;;;9.57;;
33954;SDS011;20233;50.804;7.126;2024-03-08T10:57:45;15.15;;;9.95;;
33954;SDS011;20233;50.804;7.126;2024-03-08T11:00:11;14.98;;;9.25;;
33954;SDS011;20233;50.804;7.126;2024-03-08T11:02:38;15.70;;;9.57;;
33954;SDS011;20233;50.804;7.126;2024-03-08T11:05:04;14.60;;;8.98;;
33954;SDS011;20233;50.804;7.126;2024-03-08T11:07:34;15.98;;;9.98;;
33954;SDS011;20233;50.804;7.126;2024-03-08T11:10:03;16.58;;;10.43;;
33954;SDS011;20233;50.804;7.126;2024-03-08T11:12:36;15.50;;;10.05;;
33954;SDS011;20233;50.804;7.126;2024-03-08T11:15:12;14.35;;;10.15;;
33954;SDS011;20233;50.804;7.126;2024-03-08T11:17:50;14.45;;;10.18;;
33954;SDS011;20233;50.804;7.126;2024-03-08T11:20:16;19.85;;;10.20;;
33954;SDS011;20233;50.804;7.126;2024-03-08T11:22:49;16.73;;;10.15;;
33954;SDS011;20233;50.804;7.126;2024-03-08T11:25:33;16.75;;;9.77;;
33954;SDS011;20233;50.804;7.126;2024-03-08T11:30:45;16.33;;;10.57;;
33954;SDS011;20233;50.804;7.126;2024-03-08T11:33:34;15.85;;;10.20;;
33954;SDS011;20233;50.804;7.126;2024-03-08T11:36:13;17.05;;;10.48;;
33954;SDS011;20233;50.804;7.126;2024-03-08T11:38:47;14.45;;;10.27;;
33954;SDS011;20233;50.804;7.126;2024-03-08T11:41:22;15.77;;;10.52;;
33954;SDS011;20233;50.804;7.126;2024-03-08T11:43:49;14.48;;;9.82;;
33954;SDS011;20233;50.804;7.126;2024-03-08T11:46:26;15.27;;;10.32;;
33954;SDS011;20233;50.804;7.126;2024-03-08T11:48:54;15.50;;;10.73;;
33954;SDS011;20233;50.804;7.126;2024-03-08T11:51:21;15.05;;;10.10;;
33954;SDS011;20233;50.804;7.126;2024-03-08T11:53:49;14.73;;;9.55;;
33954;SDS011;20233;50.804;7.126;2024-03-08T11:56:15;15.77;;;10.10;;
33954;SDS011;20233;50.804;7.126;2024-03-08T11:58:51;14.98;;;9.82;;
33954;SDS011;20233;50.804;7.126;2024-03-08T12:01:22;16.27;;;10.43;;
33954;SDS011;20233;50.804;7.126;2024-03-08T12:03:55;17.30;;;10.52;;
33954;SDS011;20233;50.804;7.126;2024-03-08T12:06:23;13.80;;;9.10;;
33954;SDS011;20233;50.804;7.126;2024-03-08T12:08:49;16.58;;;10.07;;
33954;SDS011;20233;50.804;7.126;2024-03-08T12:11:16;17.55;;;10.20;;
33954;SDS011;20233;50.804;7.126;2024-03-08T12:13:47;15.38;;;9.70;;
33954;SDS011;20233;50.804;7.126;2024-03-08T12:16:15;15.68;;;10.32;;
33954;SDS011;20233;50.804;7.126;2024-03-08T12:18:46;17.15;;;9.88;;
33954;SDS011;20233;50.804;7.126;2024-03-08T12:21:13;15.00;;;9.90;;
33954;SDS011;20233;50.804;7.126;2024-03-08T12:23:42;14.73;;;9.60;;
33954;SDS011;20233;50.804;7.126;2024-03-08T12:26:12;14.02;;;8.80;;
33954;SDS011;20233;50.804;7.126;2024-03-08T12:28:43;13.95;;;8.60;;
33954;SDS011;20233;50.804;7.126;2024-03-08T12:31:14;17.55;;;9.50;;
33954;SDS011;20233;50.804;7.126;2024-03-08T12:33:50;15.43;;;9.90;;
33954;SDS011;20233;50.804;7.126;2024-03-08T12:36:17;15.43;;;9.48;;
33954;SDS011;20233;50.804;7.126;2024-03-08T12:38:48;12.77;;;9.32;;
33954;SDS011;20233;50.804;7.126;2024-03-08T12:41:17;12.77;;;8.23;;
33954;SDS011;20233;50.804;7.126;2024-03-08T12:43:47;12.75;;;8.13;;
33954;SDS011;20233;50.804;7.126;2024-03-08T12:46:19;12.00;;;7.97;;
33954;SDS011;20233;50.804;7.126;2024-03-08T12:48:46;14.30;;;8.27;;
33954;SDS011;20233;50.804;7.126;2024-03-08T12:51:16;12.50;;;8.02;;
33954;SDS011;20233;50.804;7.126;2024-03-08T12:53:43;14.55;;;9.02;;
33954;SDS011;20233;50.804;7.126;2024-03-08T12:56:09;12.00;;;7.13;;
33954;SDS011;20233;50.804;7.126;2024-03-08T12:58:36;14.95;;;8.48;;
33954;SDS011;20233;50.804;7.126;2024-03-08T13:01:05;12.02;;;8.18;;
33954;SDS011;20233;50.804;7.126;2024-03-08T13:03:32;10.57;;;7.13;;
33954;SDS011;20233;50.804;7.126;2024-03-08T13:06:02;10.57;;;7.28;;
33954;SDS011;20233;50.804;7.126;2024-03-08T13:08:28;14.18;;;7.60;;
33954;SDS011;20233;50.804;7.126;2024-03-08T13:10:56;12.40;;;7.97;;
33954;SDS011;20233;50.804;7.126;2024-03-08T13:13:21;12.45;;;7.05;;
33954;SDS011;20233;50.804;7.126;2024-03-08T13:15:47;13.13;;;6.93;;
33954;SDS011;20233;50.804;7.126;2024-03-08T13:18:14;12.65;;;7.60;;
33954;SDS011;20233;50.804;7.126;2024-03-08T13:20:40;11.63;;;7.63;;
33954;SDS011;20233;50.804;7.126;2024-03-08T13:23:08;11.20;;;7.38;;
33954;SDS011;20233;50.804;7.126;2024-03-08T13:25:34;14.85;;;8.05;;
33954;SDS011;20233;50.804;7.126;2024-03-08T13:28:03;12.93;;;7.97;;
33954;SDS011;20233;50.804;7.126;2024-03-08T13:30:29;11.48;;;7.70;;
33954;SDS011;20233;50.804;7.126;2024-03-08T13:32:55;10.88;;;7.25;;
33954;SDS011;20233;50.804;7.126;2024-03-08T13:35:21;9.82;;;7.07;;
33954;SDS011;20233;50.804;7.126;2024-03-08T13:37:52;11.63;;;7.70;;
33954;SDS011;20233;50.804;7.126;2024-03-08T13:40:17;12.75;;;7.93;;
33954;SDS011;20233;50.804;7.126;2024-03-08T13:42:45;11.93;;;7.32;;
33954;SDS011;20233;50.804;7.126;2024-03-08T13:45:11;12.10;;;7.30;;
33954;SDS011;20233;50.804;7.126;2024-03-08T13:47:38;11.00;;;8.10;;
33954;SDS011;20233;50.804;7.126;2024-03-08T13:50:07;12.70;;;8.23;;
33954;SDS011;20233;50.804;7.126;2024-03-08T13:52:36;12.48;;;7.68;;
33954;SDS011;20233;50.804;7.126;2024-03-08T13:55:03;12.82;;;8.48;;
33954;SDS011;20233;50.804;7.126;2024-03-08T13:57:30;14.45;;;8.40;;
33954;SDS011;20233;50.804;7.126;2024-03-08T13:59:56;11.52;;;7.28;;
33954;SDS011;20233;50.804;7.126;2024-03-08T14:02:22;11.70;;;6.75;;
33954;SDS011;20233;50.804;7.126;2024-03-08T14:04:53;11.47;;;7.50;;
33954;SDS011;20233;50.804;7.126;2024-03-08T14:07:19;11.40;;;7.30;;
33954;SDS011;20233;50.804;7.126;2024-03-08T14:09:45;10.20;;;7.03;;
33954;SDS011;20233;50.804;7.126;2024-03-08T14:12:11;11.38;;;8.52;;
33954;SDS011;20233;50.804;7.126;2024-03-08T14:14:37;11.15;;;7.55;;
33954;SDS011;20233;50.804;7.126;2024-03-08T14:17:02;11.70;;;7.25;;
33954;SDS011;20233;50.804;7.126;2024-03-08T14:19:29;13.73;;;7.72;;
33954;SDS011;20233;50.804;7.126;2024-03-08T14:21:56;12.07;;;7.63;;
33954;SDS011;20233;50.804;7.126;2024-03-08T14:24:21;11.10;;;7.05;;
33954;SDS011;20233;50.804;7.126;2024-03-08T14:26:48;10.30;;;6.75;;
33954;SDS011;20233;50.804;7.126;2024-03-08T14:29:14;11.18;;;7.40;;